CheckWX is a tool to help pilots better visualize weather data.  It is not intended as a substitute for an official pre-flight weather briefing.

04:21:14 UTC

EGGD METAR
Bristol International Airport
Bristol, United Kingdom
Current

31 mins ago

EGGD 200350Z AUTO 15011KT 9999 BKN011 OVC048 08/06 Q1010
Observed
Nov-20 @ 03:50 UTC
Wind
  • 150° at 11 KTS
Visibility
10,000+ meters
Flight Rules
MVFR
Cloud Levels
  • Broken at 1,100' AGL
  • Overcast at 4,800' AGL
Temperature
C / 46°F
Dewpoint
C / 43°F
Humidity
87%
Altimeter
29.82" Hg
Pressure
1009.92 hPa
Previous

1 hour ago

EGGD 200320Z AUTO 14012KT 9999 BKN013 BKN038 OVC044 08/06 Q1010
Observed
Nov-20 @ 03:20 UTC
Wind
  • 140° at 12 KTS
Visibility
10,000+ meters
Flight Rules
MVFR
Cloud Levels
  • Broken at 1,300' AGL
  • Broken at 3,800' AGL
  • Overcast at 4,400' AGL
Temperature
C / 46°F
Dewpoint
C / 43°F
Humidity
87%
Altimeter
29.82" Hg
Pressure
1009.92 hPa
Previous

2 hours ago

EGGD 200250Z AUTO 14011KT 9999 BKN013 BKN047 08/06 Q1010
Observed
Nov-20 @ 02:50 UTC
Wind
  • 140° at 11 KTS
Visibility
10,000+ meters
Flight Rules
MVFR
Cloud Levels
  • Broken at 1,300' AGL
  • Broken at 4,700' AGL
Temperature
C / 46°F
Dewpoint
C / 43°F
Humidity
87%
Altimeter
29.82" Hg
Pressure
1009.92 hPa